createdAt,value
2016-04-29T00:00:48.739Z,0
2016-04-29T00:01:48.586Z,0
2016-04-29T00:02:48.744Z,0
2016-04-29T00:03:48.747Z,0
2016-04-29T00:04:48.734Z,0
2016-04-29T00:05:48.721Z,0
2016-04-29T00:06:48.724Z,0
2016-04-29T00:07:48.726Z,0
2016-04-29T00:08:48.729Z,0
2016-04-29T00:09:48.732Z,0
2016-04-29T00:10:48.735Z,0
2016-04-29T00:11:48.738Z,0
2016-04-29T00:12:48.739Z,0
2016-04-29T00:13:48.757Z,0
2016-04-29T00:14:50.472Z,0
2016-04-29T00:15:48.826Z,0
2016-04-29T00:16:48.854Z,0
2016-04-29T00:17:48.896Z,0
2016-04-29T00:18:48.945Z,0
2016-04-29T00:19:48.962Z,0
2016-04-29T00:20:48.963Z,0
2016-04-29T00:21:48.981Z,0
2016-04-29T00:22:48.997Z,0
2016-04-29T00:23:49.011Z,0
2016-04-29T00:24:49.019Z,0
2016-04-29T00:25:49.010Z,0
2016-04-29T00:26:49.002Z,0
2016-04-29T00:27:49.025Z,0
2016-04-29T00:28:49.016Z,0
2016-04-29T00:29:49.881Z,0
2016-04-29T00:30:49.353Z,0
2016-04-29T00:31:49.030Z,0
2016-04-29T00:32:49.066Z,0
2016-04-29T00:33:49.039Z,0
2016-04-29T00:34:49.042Z,0
2016-04-29T00:35:49.046Z,0
2016-04-29T00:36:49.034Z,0
2016-04-29T00:37:49.052Z,0
2016-04-29T00:38:49.041Z,0
2016-04-29T00:39:49.060Z,0
2016-04-29T00:40:49.062Z,0
2016-04-29T00:41:49.050Z,0
2016-04-29T00:42:49.037Z,0
2016-04-29T00:43:49.040Z,0
2016-04-29T18:19:20.656Z,196
2016-04-29T18:20:21.128Z,184
2016-04-29T18:21:21.100Z,172
2016-04-29T18:22:21.088Z,164
2016-04-29T18:23:21.106Z,152
2016-04-29T18:24:21.093Z,140
2016-04-29T18:25:21.096Z,132
2016-04-29T22:35:25.403Z,0
2016-04-29T22:35:37.871Z,0
2016-04-29T22:36:37.873Z,0
2016-04-29T22:37:37.861Z,0
2016-04-29T22:38:37.707Z,0
2016-04-29T22:39:37.867Z,0
2016-04-29T22:40:37.870Z,0
2016-04-29T22:41:37.873Z,0
2016-04-29T22:42:37.562Z,0
2016-04-29T22:43:37.861Z,0
2016-04-29T22:44:37.880Z,0
2016-04-29T22:45:37.866Z,0
2016-04-29T22:46:37.713Z,0
2016-04-29T22:47:37.889Z,0
2016-04-29T22:48:38.203Z,0
2016-04-29T22:49:37.861Z,0
2016-04-29T22:50:37.880Z,0
2016-04-29T22:51:37.852Z,0
2016-04-29T22:52:37.713Z,0
2016-04-29T22:53:37.872Z,0
2016-04-29T22:54:37.720Z,0
2016-04-29T22:55:37.878Z,0
2016-04-29T22:56:37.880Z,0
2016-04-29T22:57:37.853Z,0
2016-04-29T22:58:37.574Z,0
2016-04-29T22:59:37.858Z,0
2016-04-29T23:00:37.877Z,0
2016-04-29T23:01:37.863Z,0
2016-04-29T23:02:37.709Z,0
2016-04-29T23:03:37.899Z,0
2016-04-29T23:04:37.871Z,0
2016-04-29T23:05:37.890Z,0
2016-04-29T23:06:37.862Z,0
2016-04-29T23:07:37.864Z,0
2016-04-29T23:08:37.881Z,0
2016-04-29T23:09:37.870Z,0
2016-04-29T23:10:37.873Z,0
2016-04-29T23:11:37.718Z,0
2016-04-29T23:12:37.721Z,0
2016-04-29T23:13:37.865Z,0
2016-04-29T23:14:37.742Z,0
2016-04-29T23:15:37.557Z,0
2016-04-29T23:16:37.857Z,0
2016-04-29T23:17:37.859Z,0
2016-04-29T23:18:38.222Z,0
2016-04-29T23:19:37.880Z,0
2016-04-29T23:20:37.727Z,0
2016-04-29T23:21:37.855Z,0
2016-04-29T23:22:37.872Z,0
2016-04-29T23:23:37.704Z,0
2016-04-29T23:24:37.706Z,0
2016-04-29T23:25:37.865Z,0
2016-04-29T23:26:37.868Z,0
2016-04-29T23:27:37.871Z,0
2016-04-29T23:28:37.702Z,0
2016-04-29T23:29:37.877Z,0
2016-04-29T23:30:37.863Z,0
2016-04-29T23:31:37.866Z,0
2016-04-29T23:32:37.557Z,0
2016-04-29T23:33:38.418Z,0
2016-04-29T23:34:37.874Z,0
2016-04-29T23:35:37.877Z,0
2016-04-29T23:36:37.738Z,0
2016-04-29T23:37:37.866Z,0
2016-04-29T23:38:37.728Z,0
2016-04-29T23:39:37.715Z,0
2016-04-29T23:40:37.859Z,0
2016-04-29T23:41:37.861Z,0
2016-04-29T23:42:37.864Z,0
2016-04-29T23:43:37.851Z,0
2016-04-29T23:44:37.854Z,0
2016-04-29T23:45:37.872Z,0
2016-04-29T23:46:37.875Z,0
2016-04-29T23:47:37.862Z,0
2016-04-29T23:48:38.178Z,0
2016-04-29T23:49:37.868Z,0
2016-04-29T23:50:37.870Z,0
2016-04-29T23:51:37.873Z,0
2016-04-29T23:52:37.703Z,0
2016-04-29T23:53:37.863Z,0
2016-04-29T23:54:37.866Z,0
2016-04-29T23:55:37.868Z,0
2016-04-29T23:56:37.558Z,0
2016-04-29T23:57:37.716Z,0
2016-04-29T23:58:37.860Z,0
2016-04-29T23:59:37.879Z,0
